Time,TemperatureF,DewpointF,PressureIn,WindDirection,WindDirectionDegrees,WindSpeedMPH,WindSpeedGustMPH,Humidity,HourlyPrecipIn,Conditions,Clouds,dailyrainin,SoftwareType,DateUTC
2013-02-08 08:37:00,21.7,18.7,29.89,NE,45,8.5,8.5,88,0.00,,,0.00,WUHU21623XXSP,2013-02-08 13:37:00,
2013-02-08 08:38:00,21.7,18.7,29.89,NE,45,8.5,8.5,88,0.00,,,0.00,WUHU21623XXSP,2013-02-08 13:38:00,
2013-02-08 08:43:00,21.7,18.7,29.89,NW,315,5.8,8.5,88,0.00,,,0.00,WUHU21623XXSP,2013-02-08 13:43:00,
2013-02-08 08:48:00,21.7,18.7,29.89,NNE,22,0.0,5.8,88,0.00,,,0.00,WUHU21623XXSP,2013-02-08 13:48:00,
2013-02-08 08:53:00,21.7,18.7,29.89,NNW,337,1.6,1.6,88,0.00,,,0.00,WUHU21623XXSP,2013-02-08 13:53:00,
2013-02-08 08:58:00,21.7,18.7,29.89,NNE,22,10.3,10.3,88,0.00,,,0.00,WUHU21623XXSP,2013-02-08 13:58:00,
2013-02-08 09:03:00,21.7,18.7,29.89,North,0,2.0,10.3,88,0.00,,,0.00,WUHU21623XXSP,2013-02-08 14:03:00,
2013-02-08 09:08:00,21.5,18.2,29.90,NNW,337,5.6,10.1,87,0.00,,,0.00,WUHU21623XXSP,2013-02-08 14:08:00,
2013-02-08 09:13:00,21.3,18.0,29.90,NNW,337,5.6,10.1,87,0.00,,,0.00,WUHU21623XXSP,2013-02-08 14:13:00,
2013-02-08 09:18:00,21.5,18.2,29.91,NNE,22,3.4,5.6,87,0.00,,,0.00,WUHU21623XXSP,2013-02-08 14:18:00,
2013-02-08 09:23:00,21.3,17.7,29.91,North,0,7.8,13.6,86,0.00,,,0.00,WUHU21623XXSP,2013-02-08 14:23:00,
2013-02-08 09:28:00,21.3,17.5,29.91,NNW,337,12.3,13.6,85,0.00,,,0.00,WUHU21623XXSP,2013-02-08 14:28:00,
2013-02-08 09:33:00,21.3,17.5,29.92,North,0,5.8,12.3,85,0.00,,,0.00,WUHU21623XXSP,2013-02-08 14:33:00,
2013-02-08 09:38:00,21.3,17.5,29.92,North,0,4.0,5.8,85,0.00,,,0.00,WUHU21623XXSP,2013-02-08 14:38:00,
2013-02-08 09:43:00,21.3,17.5,29.92,NW,315,11.2,11.2,85,0.00,,,0.00,WUHU21623XXSP,2013-02-08 14:43:00,
2013-02-08 09:48:00,21.3,16.9,29.92,NW,315,11.2,11.2,83,0.00,,,0.00,WUHU21623XXSP,2013-02-08 14:48:00,
2013-02-08 09:53:00,21.3,16.9,29.92,NNE,22,8.7,11.2,83,0.00,,,0.00,WUHU21623XXSP,2013-02-08 14:53:00,
2013-02-08 09:58:00,21.9,17.5,29.92,NNW,337,11.6,11.6,83,0.00,,,0.00,WUHU21623XXSP,2013-02-08 14:58:00,
2013-02-08 10:03:00,21.9,17.2,29.92,North,0,8.5,11.6,82,0.00,,,0.00,WUHU21623XXSP,2013-02-08 15:03:00,
2013-02-08 10:08:00,21.9,17.0,29.93,NNW,337,6.9,8.5,81,0.00,,,0.00,WUHU21623XXSP,2013-02-08 15:08:00,
2013-02-08 10:13:00,21.7,16.8,29.93,North,0,0.0,6.9,81,0.00,,,0.00,WUHU21623XXSP,2013-02-08 15:13:00,
2013-02-08 10:18:00,21.9,17.0,29.93,North,0,6.0,6.0,81,0.00,,,0.00,WUHU21623XXSP,2013-02-08 15:18:00,
2013-02-08 10:23:00,21.7,16.5,29.94,NNW,337,12.5,12.5,80,0.00,,,0.00,WUHU21623XXSP,2013-02-08 15:23:00,
2013-02-08 10:28:00,21.7,16.5,29.94,NNE,22,11.4,12.5,80,0.00,,,0.00,WUHU21623XXSP,2013-02-08 15:28:00,
2013-02-08 10:33:00,21.9,16.7,29.94,NNE,22,6.5,11.4,80,0.00,,,0.00,WUHU21623XXSP,2013-02-08 15:33:00,
2013-02-08 10:38:00,22.0,16.8,29.94,North,0,6.9,6.9,80,0.00,,,0.00,WUHU21623XXSP,2013-02-08 15:38:00,
2013-02-08 10:43:00,22.0,16.8,29.94,North,0,8.3,8.3,80,0.00,,,0.00,WUHU21623XXSP,2013-02-08 15:43:00,
2013-02-08 10:48:00,22.2,16.7,29.95,North,0,8.3,8.3,79,0.00,,,0.00,WUHU21623XXSP,2013-02-08 15:48:00,
2013-02-08 10:53:00,22.4,16.6,29.95,NNW,337,5.6,8.3,78,0.00,,,0.00,WUHU21623XXSP,2013-02-08 15:53:00,
2013-02-08 10:58:00,22.6,16.8,29.96,NNW,337,5.6,5.6,78,0.00,,,0.00,WUHU21623XXSP,2013-02-08 15:58:00,
2013-02-08 11:03:00,22.6,16.8,29.96,NNW,337,10.5,10.5,78,0.00,,,0.00,WUHU21623XXSP,2013-02-08 16:03:00,
2013-02-08 11:09:00,22.9,17.1,29.96,NNW,337,10.3,10.5,78,0.00,,,0.00,WUHU21623XXSP,2013-02-08 16:09:00,
2013-02-08 11:14:00,23.1,17.3,29.97,NE,45,0.0,10.3,78,0.00,,,0.00,WUHU21623XXSP,2013-02-08 16:14:00,
2013-02-08 11:20:00,24.0,17.9,29.97,NW,315,11.0,11.0,77,0.00,,,0.00,WUHU21623XXSP,2013-02-08 16:20:00,
2013-02-08 11:25:00,24.2,17.8,29.98,NNE,22,0.0,11.0,76,0.00,,,0.00,WUHU21623XXSP,2013-02-08 16:25:00,
2013-02-08 11:30:00,24.4,17.9,29.98,NNW,337,8.9,11.0,76,0.00,,,0.00,WUHU21623XXSP,2013-02-08 16:30:00,
2013-02-08 11:35:00,24.7,17.9,29.97,NNW,337,5.8,8.9,75,0.00,,,0.00,WUHU21623XXSP,2013-02-08 16:35:00,
2013-02-08 11:40:00,24.7,17.9,29.97,NW,315,12.3,12.3,75,0.00,,,0.00,WUHU21623XXSP,2013-02-08 16:40:00,
2013-02-08 11:45:00,24.7,17.9,29.97,NNE,22,0.0,12.3,75,0.00,,,0.00,WUHU21623XXSP,2013-02-08 16:45:00,
2013-02-08 11:50:00,24.9,17.8,29.98,North,0,6.5,6.5,74,0.00,,,0.00,WUHU21623XXSP,2013-02-08 16:50:00,
2013-02-08 11:55:00,25.1,18.0,29.98,ENE,67,5.8,6.5,74,0.00,,,0.00,WUHU21623XXSP,2013-02-08 16:55:00,
2013-02-08 12:01:00,25.5,18.4,29.98,NE,45,0.0,5.8,74,0.00,,,0.00,WUHU21623XXSP,2013-02-08 17:01:00,
2013-02-08 12:06:00,25.6,18.5,29.98,NNW,337,0.0,0.0,74,0.00,,,0.00,WUHU21623XXSP,2013-02-08 17:06:00,
2013-02-08 12:11:00,25.6,18.2,29.98,North,0,0.0,0.0,73,0.00,,,0.00,WUHU21623XXSP,2013-02-08 17:11:00,
2013-02-08 12:16:00,25.6,18.2,29.98,NE,45,8.3,11.4,73,0.00,,,0.00,WUHU21623XXSP,2013-02-08 17:16:00,
2013-02-08 12:21:00,25.6,18.2,29.99,North,0,6.9,11.4,73,0.00,,,0.00,WUHU21623XXSP,2013-02-08 17:21:00,
2013-02-08 12:26:00,25.6,18.2,29.99,NNW,337,3.6,6.9,73,0.00,,,0.00,WUHU21623XXSP,2013-02-08 17:26:00,
2013-02-08 12:31:00,26.0,18.6,29.99,North,0,7.8,7.8,73,0.00,,,0.00,WUHU21623XXSP,2013-02-08 17:31:00,
2013-02-08 12:36:00,26.2,18.8,29.98,North,0,8.3,8.3,73,0.00,,,0.00,WUHU21623XXSP,2013-02-08 17:36:00,
2013-02-08 12:41:00,26.5,19.1,29.98,NNW,337,2.7,8.3,73,0.00,,,0.00,WUHU21623XXSP,2013-02-08 17:41:00,
2013-02-08 12:47:00,27.3,19.8,29.98,North,0,7.2,7.2,73,0.00,,,0.00,WUHU21623XXSP,2013-02-08 17:47:00,
2013-02-08 12:51:00,27.3,19.8,29.98,NNW,337,7.4,7.4,73,0.00,,,0.00,WUHU21623XXSP,2013-02-08 17:51:00,
2013-02-08 12:57:00,27.4,19.6,29.98,North,0,0.0,9.8,72,0.00,,,0.00,WUHU21623XXSP,2013-02-08 17:57:00,
2013-02-08 13:02:00,27.4,19.6,29.98,NNW,337,0.0,9.8,72,0.00,,,0.00,WUHU21623XXSP,2013-02-08 18:02:00,
2013-02-08 13:07:00,27.6,19.8,29.99,WNW,292,12.5,12.5,72,0.00,,,0.00,WUHU21623XXSP,2013-02-08 18:07:00,
2013-02-08 13:16:00,27.1,19.0,29.99,North,0,13.2,13.2,71,0.00,,,0.00,WUHU21623XXSP,2013-02-08 18:16:00,
2013-02-08 13:21:00,26.7,18.9,29.99,NNW,337,5.8,13.2,72,0.00,,,0.00,WUHU21623XXSP,2013-02-08 18:21:00,
2013-02-08 13:26:00,26.7,18.6,29.99,NNW,337,5.6,5.8,71,0.00,,,0.00,WUHU21623XXSP,2013-02-08 18:26:00,
2013-02-08 13:31:00,26.5,18.4,29.99,NNE,22,12.3,12.3,71,0.00,,,0.00,WUHU21623XXSP,2013-02-08 18:31:00,
2013-02-08 13:36:00,26.5,18.4,29.99,NNE,22,0.0,12.3,71,0.00,,,0.00,WUHU21623XXSP,2013-02-08 18:36:00,
2013-02-08 14:14:00,26.5,18.4,30.00,NE,45,9.6,9.6,71,0.00,,,0.00,WUHU21623XXSP,2013-02-08 19:14:00,
2013-02-08 15:14:00,27.3,18.5,30.02,North,0,8.1,8.1,69,0.00,,,0.00,WUHU21623XXSP,2013-02-08 20:14:00,
2013-02-08 16:14:00,26.7,17.6,30.04,NW,315,11.9,11.9,68,0.00,,,0.00,WUHU21623XXSP,2013-02-08 21:14:00,
2013-02-08 17:14:00,24.9,15.9,30.06,NNW,338,8.9,8.9,68,0.00,,,0.00,WUHU21623XXSP,2013-02-08 22:14:00,
2013-02-08 18:14:00,22.4,14.1,30.10,NNE,23,0.0,0.0,70,0.00,,,0.00,WUHU21623XXSP,2013-02-08 23:14:00,
2013-02-08 19:14:00,19.0,11.8,30.12,NW,315,0.0,0.0,73,0.00,,,0.00,WUHU21623XXSP,2013-02-09 00:14:00,
2013-02-08 20:14:00,15.9,9.7,30.14,WNW,293,0.0,0.0,76,0.00,,,0.00,WUHU21623XXSP,2013-02-09 01:14:00,
2013-02-08 21:14:00,14.8,8.9,30.16,NE,45,0.0,0.0,77,0.00,,,0.00,WUHU21623XXSP,2013-02-09 02:14:00,
2013-02-08 22:14:00,13.4,8.1,30.18,NW,315,0.0,0.0,79,0.00,,,0.00,WUHU21623XXSP,2013-02-09 03:14:00,
2013-02-08 23:14:00,12.7,8.0,30.19,NNW,338,0.0,0.0,81,0.00,,,0.00,WUHU21623XXSP,2013-02-09 04:14:00,